sensor_id;sensor_type;location;lat;lon;timestamp;P1;durP1;ratioP1;P2;durP2;ratioP2
7887;SDS011;3989;48.810;9.208;2022-09-09T00:02:19;3.03;;;1.43;;
7887;SDS011;3989;48.810;9.208;2022-09-09T00:04:51;3.07;;;2.07;;
7887;SDS011;3989;48.810;9.208;2022-09-09T00:07:25;2.47;;;1.80;;
7887;SDS011;3989;48.810;9.208;2022-09-09T00:10:09;3.47;;;2.37;;
7887;SDS011;3989;48.810;9.208;2022-09-09T00:12:44;4.10;;;1.50;;
7887;SDS011;3989;48.810;9.208;2022-09-09T00:15:20;1.97;;;1.77;;
7887;SDS011;3989;48.810;9.208;2022-09-09T00:17:52;3.73;;;1.70;;
7887;SDS011;3989;48.810;9.208;2022-09-09T00:20:24;3.77;;;1.60;;
7887;SDS011;3989;48.810;9.208;2022-09-09T00:22:57;3.33;;;1.50;;
7887;SDS011;3989;48.810;9.208;2022-09-09T00:25:31;2.30;;;1.90;;
7887;SDS011;3989;48.810;9.208;2022-09-09T00:28:08;4.00;;;1.73;;
7887;SDS011;3989;48.810;9.208;2022-09-09T00:30:43;2.07;;;1.70;;
7887;SDS011;3989;48.810;9.208;2022-09-09T00:33:13;2.77;;;1.77;;
7887;SDS011;3989;48.810;9.208;2022-09-09T00:35:42;2.73;;;2.30;;
7887;SDS011;3989;48.810;9.208;2022-09-09T00:38:12;5.17;;;1.80;;
7887;SDS011;3989;48.810;9.208;2022-09-09T00:40:43;1.73;;;1.53;;
7887;SDS011;3989;48.810;9.208;2022-09-09T00:43:20;3.53;;;1.87;;
7887;SDS011;3989;48.810;9.208;2022-09-09T00:48:57;2.43;;;1.57;;
7887;SDS011;3989;48.810;9.208;2022-09-09T00:51:33;1.80;;;1.43;;
7887;SDS011;3989;48.810;9.208;2022-09-09T00:54:24;3.20;;;1.67;;
7887;SDS011;3989;48.810;9.208;2022-09-09T00:57:02;1.70;;;1.60;;
7887;SDS011;3989;48.810;9.208;2022-09-09T00:59:42;1.93;;;1.77;;
7887;SDS011;3989;48.810;9.208;2022-09-09T01:02:13;3.40;;;2.10;;
7887;SDS011;3989;48.810;9.208;2022-09-09T01:04:49;3.43;;;2.00;;
7887;SDS011;3989;48.810;9.208;2022-09-09T01:07:17;4.47;;;1.97;;
7887;SDS011;3989;48.810;9.208;2022-09-09T01:09:55;3.47;;;1.87;;
7887;SDS011;3989;48.810;9.208;2022-09-09T01:12:24;3.97;;;1.83;;
7887;SDS011;3989;48.810;9.208;2022-09-09T01:14:56;4.60;;;2.07;;
7887;SDS011;3989;48.810;9.208;2022-09-09T01:17:30;1.90;;;1.73;;
7887;SDS011;3989;48.810;9.208;2022-09-09T01:20:04;2.47;;;2.10;;
7887;SDS011;3989;48.810;9.208;2022-09-09T01:22:37;3.50;;;2.10;;
7887;SDS011;3989;48.810;9.208;2022-09-09T01:25:15;3.50;;;2.20;;
7887;SDS011;3989;48.810;9.208;2022-09-09T01:27:59;2.63;;;2.20;;
7887;SDS011;3989;48.810;9.208;2022-09-09T01:30:28;4.50;;;2.40;;
7887;SDS011;3989;48.810;9.208;2022-09-09T01:32:55;2.50;;;2.30;;
7887;SDS011;3989;48.810;9.208;2022-09-09T01:35:34;4.03;;;2.30;;
7887;SDS011;3989;48.810;9.208;2022-09-09T01:38:09;7.17;;;2.57;;
7887;SDS011;3989;48.810;9.208;2022-09-09T01:40:36;3.13;;;2.33;;
7887;SDS011;3989;48.810;9.208;2022-09-09T01:43:04;3.47;;;2.20;;
7887;SDS011;3989;48.810;9.208;2022-09-09T01:45:31;3.97;;;2.00;;
7887;SDS011;3989;48.810;9.208;2022-09-09T01:47:58;3.30;;;2.43;;
7887;SDS011;3989;48.810;9.208;2022-09-09T01:50:27;4.17;;;2.33;;
7887;SDS011;3989;48.810;9.208;2022-09-09T01:52:54;2.77;;;1.97;;
7887;SDS011;3989;48.810;9.208;2022-09-09T01:55:27;2.87;;;2.17;;
7887;SDS011;3989;48.810;9.208;2022-09-09T01:57:57;2.97;;;2.20;;
7887;SDS011;3989;48.810;9.208;2022-09-09T02:00:33;3.33;;;2.40;;
7887;SDS011;3989;48.810;9.208;2022-09-09T02:03:08;3.10;;;1.90;;
7887;SDS011;3989;48.810;9.208;2022-09-09T02:05:45;3.93;;;2.30;;
7887;SDS011;3989;48.810;9.208;2022-09-09T02:08:23;2.50;;;2.00;;
7887;SDS011;3989;48.810;9.208;2022-09-09T02:10:53;4.70;;;2.47;;
7887;SDS011;3989;48.810;9.208;2022-09-09T02:13:26;3.23;;;2.33;;
7887;SDS011;3989;48.810;9.208;2022-09-09T02:15:57;2.10;;;1.87;;
7887;SDS011;3989;48.810;9.208;2022-09-09T02:18:30;4.57;;;2.00;;
7887;SDS011;3989;48.810;9.208;2022-09-09T02:21:01;4.80;;;1.93;;
7887;SDS011;3989;48.810;9.208;2022-09-09T02:23:29;2.13;;;2.00;;
7887;SDS011;3989;48.810;9.208;2022-09-09T02:25:58;3.13;;;2.50;;
7887;SDS011;3989;48.810;9.208;2022-09-09T02:28:25;2.13;;;1.93;;
7887;SDS011;3989;48.810;9.208;2022-09-09T02:30:54;4.33;;;2.27;;
7887;SDS011;3989;48.810;9.208;2022-09-09T02:33:22;4.73;;;2.50;;
7887;SDS011;3989;48.810;9.208;2022-09-09T02:35:52;4.33;;;2.40;;
7887;SDS011;3989;48.810;9.208;2022-09-09T02:38:26;3.50;;;2.53;;
7887;SDS011;3989;48.810;9.208;2022-09-09T02:40:55;4.27;;;2.17;;
7887;SDS011;3989;48.810;9.208;2022-09-09T02:43:23;4.00;;;2.67;;
7887;SDS011;3989;48.810;9.208;2022-09-09T02:45:51;2.77;;;2.30;;
7887;SDS011;3989;48.810;9.208;2022-09-09T02:48:26;3.57;;;2.30;;
7887;SDS011;3989;48.810;9.208;2022-09-09T02:50:59;2.20;;;2.00;;
7887;SDS011;3989;48.810;9.208;2022-09-09T02:53:33;7.03;;;2.13;;
7887;SDS011;3989;48.810;9.208;2022-09-09T02:56:07;5.37;;;2.70;;
7887;SDS011;3989;48.810;9.208;2022-09-09T02:58:40;4.13;;;1.83;;
7887;SDS011;3989;48.810;9.208;2022-09-09T03:01:07;3.77;;;1.97;;
7887;SDS011;3989;48.810;9.208;2022-09-09T03:03:36;2.70;;;2.00;;
7887;SDS011;3989;48.810;9.208;2022-09-09T03:06:03;2.47;;;2.27;;
7887;SDS011;3989;48.810;9.208;2022-09-09T03:08:30;2.60;;;1.97;;
7887;SDS011;3989;48.810;9.208;2022-09-09T03:10:58;1.80;;;1.70;;
7887;SDS011;3989;48.810;9.208;2022-09-09T03:13:26;2.03;;;1.70;;
7887;SDS011;3989;48.810;9.208;2022-09-09T03:15:53;2.50;;;1.87;;
7887;SDS011;3989;48.810;9.208;2022-09-09T03:18:19;2.00;;;1.73;;
7887;SDS011;3989;48.810;9.208;2022-09-09T03:20:47;1.97;;;1.80;;
7887;SDS011;3989;48.810;9.208;2022-09-09T03:23:14;3.20;;;1.90;;
7887;SDS011;3989;48.810;9.208;2022-09-09T03:25:46;2.87;;;2.10;;
7887;SDS011;3989;48.810;9.208;2022-09-09T03:28:13;2.90;;;2.27;;
7887;SDS011;3989;48.810;9.208;2022-09-09T03:30:40;4.60;;;2.27;;
7887;SDS011;3989;48.810;9.208;2022-09-09T03:33:07;2.40;;;1.87;;
7887;SDS011;3989;48.810;9.208;2022-09-09T03:35:33;4.93;;;1.80;;
7887;SDS011;3989;48.810;9.208;2022-09-09T03:38:01;2.10;;;1.60;;
7887;SDS011;3989;48.810;9.208;2022-09-09T03:40:27;2.00;;;1.50;;
7887;SDS011;3989;48.810;9.208;2022-09-09T03:42:56;1.40;;;1.30;;
7887;SDS011;3989;48.810;9.208;2022-09-09T03:45:22;7.03;;;1.83;;
7887;SDS011;3989;48.810;9.208;2022-09-09T03:47:49;3.20;;;1.57;;
7887;SDS011;3989;48.810;9.208;2022-09-09T03:50:15;4.47;;;1.97;;
7887;SDS011;3989;48.810;9.208;2022-09-09T03:52:43;4.83;;;2.30;;
7887;SDS011;3989;48.810;9.208;2022-09-09T03:55:11;5.33;;;2.20;;
7887;SDS011;3989;48.810;9.208;2022-09-09T03:57:37;3.13;;;1.70;;
7887;SDS011;3989;48.810;9.208;2022-09-09T04:00:05;3.73;;;1.70;;
7887;SDS011;3989;48.810;9.208;2022-09-09T04:02:33;2.67;;;1.90;;
7887;SDS011;3989;48.810;9.208;2022-09-09T04:05:00;3.63;;;1.90;;
7887;SDS011;3989;48.810;9.208;2022-09-09T04:07:26;2.40;;;2.20;;
7887;SDS011;3989;48.810;9.208;2022-09-09T04:09:53;2.53;;;2.27;;
7887;SDS011;3989;48.810;9.208;2022-09-09T04:12:22;4.67;;;2.37;;
7887;SDS011;3989;48.810;9.208;2022-09-09T04:14:48;5.37;;;2.20;;
7887;SDS011;3989;48.810;9.208;2022-09-09T04:17:15;3.53;;;2.50;;
7887;SDS011;3989;48.810;9.208;2022-09-09T04:19:42;4.37;;;2.20;;
7887;SDS011;3989;48.810;9.208;2022-09-09T04:22:09;4.00;;;2.07;;
7887;SDS011;3989;48.810;9.208;2022-09-09T04:24:35;2.00;;;1.90;;
7887;SDS011;3989;48.810;9.208;2022-09-09T04:27:02;2.07;;;1.67;;
7887;SDS011;3989;48.810;9.208;2022-09-09T04:29:30;2.57;;;1.70;;
7887;SDS011;3989;48.810;9.208;2022-09-09T04:31:56;3.63;;;1.63;;
7887;SDS011;3989;48.810;9.208;2022-09-09T04:34:23;3.73;;;1.80;;
7887;SDS011;3989;48.810;9.208;2022-09-09T04:36:50;4.03;;;1.57;;
7887;SDS011;3989;48.810;9.208;2022-09-09T04:39:17;3.37;;;2.00;;
7887;SDS011;3989;48.810;9.208;2022-09-09T04:41:44;5.30;;;1.60;;
7887;SDS011;3989;48.810;9.208;2022-09-09T04:44:12;1.83;;;1.70;;
7887;SDS011;3989;48.810;9.208;2022-09-09T04:46:40;2.10;;;1.50;;
7887;SDS011;3989;48.810;9.208;2022-09-09T04:49:07;2.50;;;1.60;;
7887;SDS011;3989;48.810;9.208;2022-09-09T04:51:33;2.70;;;1.70;;
7887;SDS011;3989;48.810;9.208;2022-09-09T04:54:00;2.87;;;1.37;;
7887;SDS011;3989;48.810;9.208;2022-09-09T04:56:26;2.07;;;1.10;;
7887;SDS011;3989;48.810;9.208;2022-09-09T04:58:54;1.80;;;1.70;;
7887;SDS011;3989;48.810;9.208;2022-09-09T05:01:21;1.50;;;1.40;;
7887;SDS011;3989;48.810;9.208;2022-09-09T05:03:50;2.80;;;1.47;;
7887;SDS011;3989;48.810;9.208;2022-09-09T05:06:18;1.40;;;1.30;;
7887;SDS011;3989;48.810;9.208;2022-09-09T05:08:46;2.20;;;2.00;;
7887;SDS011;3989;48.810;9.208;2022-09-09T05:11:14;1.93;;;1.37;;
7887;SDS011;3989;48.810;9.208;2022-09-09T05:13:45;2.87;;;1.70;;
7887;SDS011;3989;48.810;9.208;2022-09-09T05:16:12;2.50;;;1.50;;
7887;SDS011;3989;48.810;9.208;2022-09-09T05:18:40;2.90;;;2.50;;
7887;SDS011;3989;48.810;9.208;2022-09-09T05:21:09;5.57;;;2.00;;
7887;SDS011;3989;48.810;9.208;2022-09-09T05:23:35;3.43;;;1.87;;
7887;SDS011;3989;48.810;9.208;2022-09-09T05:26:04;2.90;;;1.60;;
7887;SDS011;3989;48.810;9.208;2022-09-09T05:28:33;3.10;;;1.40;;
7887;SDS011;3989;48.810;9.208;2022-09-09T05:31:00;1.70;;;1.60;;
7887;SDS011;3989;48.810;9.208;2022-09-09T05:33:29;1.93;;;1.60;;
7887;SDS011;3989;48.810;9.208;2022-09-09T05:35:58;3.63;;;1.60;;
7887;SDS011;3989;48.810;9.208;2022-09-09T05:38:28;2.93;;;2.13;;
7887;SDS011;3989;48.810;9.208;2022-09-09T05:40:55;4.97;;;1.93;;
7887;SDS011;3989;48.810;9.208;2022-09-09T05:43:22;2.13;;;1.40;;
7887;SDS011;3989;48.810;9.208;2022-09-09T05:45:58;1.97;;;1.50;;
7887;SDS011;3989;48.810;9.208;2022-09-09T05:48:27;3.90;;;1.60;;
7887;SDS011;3989;48.810;9.208;2022-09-09T05:50:54;5.87;;;2.40;;
7887;SDS011;3989;48.810;9.208;2022-09-09T05:53:21;1.50;;;1.40;;
7887;SDS011;3989;48.810;9.208;2022-09-09T05:55:49;7.63;;;1.80;;
7887;SDS011;3989;48.810;9.208;2022-09-09T05:58:16;3.23;;;1.67;;
7887;SDS011;3989;48.810;9.208;2022-09-09T06:00:43;5.80;;;1.60;;
7887;SDS011;3989;48.810;9.208;2022-09-09T06:03:10;3.80;;;1.60;;
7887;SDS011;3989;48.810;9.208;2022-09-09T06:05:37;2.10;;;1.60;;
7887;SDS011;3989;48.810;9.208;2022-09-09T06:08:04;1.20;;;1.10;;
7887;SDS011;3989;48.810;9.208;2022-09-09T06:10:30;1.50;;;1.27;;
7887;SDS011;3989;48.810;9.208;2022-09-09T06:12:58;4.17;;;1.37;;
7887;SDS011;3989;48.810;9.208;2022-09-09T06:15:25;1.60;;;1.50;;
7887;SDS011;3989;48.810;9.208;2022-09-09T06:17:53;5.37;;;1.80;;
7887;SDS011;3989;48.810;9.208;2022-09-09T06:20:20;2.47;;;1.60;;
7887;SDS011;3989;48.810;9.208;2022-09-09T06:22:47;4.20;;;1.83;;
7887;SDS011;3989;48.810;9.208;2022-09-09T06:25:14;2.43;;;1.90;;
7887;SDS011;3989;48.810;9.208;2022-09-09T06:27:41;4.30;;;1.60;;
7887;SDS011;3989;48.810;9.208;2022-09-09T06:30:10;2.87;;;1.67;;
7887;SDS011;3989;48.810;9.208;2022-09-09T06:32:37;2.17;;;1.77;;
7887;SDS011;3989;48.810;9.208;2022-09-09T06:35:04;2.63;;;2.10;;
7887;SDS011;3989;48.810;9.208;2022-09-09T06:37:32;1.87;;;1.50;;
7887;SDS011;3989;48.810;9.208;2022-09-09T06:39:59;2.67;;;1.70;;
7887;SDS011;3989;48.810;9.208;2022-09-09T06:42:25;7.20;;;1.50;;
7887;SDS011;3989;48.810;9.208;2022-09-09T06:44:52;2.77;;;1.57;;
7887;SDS011;3989;48.810;9.208;2022-09-09T06:47:20;5.13;;;2.17;;
7887;SDS011;3989;48.810;9.208;2022-09-09T06:49:46;4.00;;;1.60;;
7887;SDS011;3989;48.810;9.208;2022-09-09T06:52:13;4.80;;;1.57;;
7887;SDS011;3989;48.810;9.208;2022-09-09T06:54:39;3.90;;;1.33;;
7887;SDS011;3989;48.810;9.208;2022-09-09T06:57:06;5.20;;;1.50;;
7887;SDS011;3989;48.810;9.208;2022-09-09T06:59:33;4.00;;;1.63;;
7887;SDS011;3989;48.810;9.208;2022-09-09T07:02:00;2.10;;;1.83;;
7887;SDS011;3989;48.810;9.208;2022-09-09T07:04:28;6.27;;;1.60;;
7887;SDS011;3989;48.810;9.208;2022-09-09T07:06:54;2.63;;;1.48;;
7887;SDS011;3989;48.810;9.208;2022-09-09T07:09:21;1.47;;;1.30;;
7887;SDS011;3989;48.810;9.208;2022-09-09T07:11:49;2.60;;;1.33;;
7887;SDS011;3989;48.810;9.208;2022-09-09T07:14:18;1.67;;;1.15;;
7887;SDS011;3989;48.810;9.208;2022-09-09T07:16:45;2.05;;;1.20;;
7887;SDS011;3989;48.810;9.208;2022-09-09T07:19:12;3.38;;;1.20;;
7887;SDS011;3989;48.810;9.208;2022-09-09T07:21:41;1.20;;;1.20;;
7887;SDS011;3989;48.810;9.208;2022-09-09T07:24:08;2.42;;;1.40;;
7887;SDS011;3989;48.810;9.208;2022-09-09T07:26:36;1.88;;;1.40;;
7887;SDS011;3989;48.810;9.208;2022-09-09T07:29:03;3.10;;;1.40;;
7887;SDS011;3989;48.810;9.208;2022-09-09T07:31:30;9.65;;;1.65;;
7887;SDS011;3989;48.810;9.208;2022-09-09T07:33:59;2.80;;;1.23;;
7887;SDS011;3989;48.810;9.208;2022-09-09T07:36:27;1.30;;;1.08;;
7887;SDS011;3989;48.810;9.208;2022-09-09T07:38:58;6.05;;;1.48;;
7887;SDS011;3989;48.810;9.208;2022-09-09T07:41:27;4.85;;;1.60;;
7887;SDS011;3989;48.810;9.208;2022-09-09T07:43:55;5.68;;;1.33;;
7887;SDS011;3989;48.810;9.208;2022-09-09T07:46:23;2.90;;;1.55;;
7887;SDS011;3989;48.810;9.208;2022-09-09T07:48:51;1.60;;;0.98;;
7887;SDS011;3989;48.810;9.208;2022-09-09T07:51:20;1.23;;;1.02;;
7887;SDS011;3989;48.810;9.208;2022-09-09T07:53:51;2.88;;;1.50;;
7887;SDS011;3989;48.810;9.208;2022-09-09T07:56:20;1.55;;;1.17;;
7887;SDS011;3989;48.810;9.208;2022-09-09T07:58:47;1.95;;;1.00;;
7887;SDS011;3989;48.810;9.208;2022-09-09T08:01:16;2.65;;;1.35;;
7887;SDS011;3989;48.810;9.208;2022-09-09T08:03:43;1.73;;;1.30;;
7887;SDS011;3989;48.810;9.208;2022-09-09T08:06:11;3.05;;;1.10;;
7887;SDS011;3989;48.810;9.208;2022-09-09T08:08:39;5.55;;;1.25;;
7887;SDS011;3989;48.810;9.208;2022-09-09T08:11:09;3.72;;;1.10;;
7887;SDS011;3989;48.810;9.208;2022-09-09T08:13:38;1.35;;;1.08;;
7887;SDS011;3989;48.810;9.208;2022-09-09T08:16:06;5.30;;;1.13;;
7887;SDS011;3989;48.810;9.208;2022-09-09T08:18:33;1.88;;;1.20;;
7887;SDS011;3989;48.810;9.208;2022-09-09T08:21:07;2.53;;;1.00;;
7887;SDS011;3989;48.810;9.208;2022-09-09T08:23:37;2.10;;;1.20;;
7887;SDS011;3989;48.810;9.208;2022-09-09T08:26:04;2.30;;;1.20;;
7887;SDS011;3989;48.810;9.208;2022-09-09T08:28:34;3.08;;;1.23;;
7887;SDS011;3989;48.810;9.208;2022-09-09T08:31:11;1.90;;;1.20;;
7887;SDS011;3989;48.810;9.208;2022-09-09T08:33:39;0.77;;;0.77;;
7887;SDS011;3989;48.810;9.208;2022-09-09T08:36:08;1.05;;;0.90;;
7887;SDS011;3989;48.810;9.208;2022-09-09T08:38:37;1.27;;;1.10;;
7887;SDS011;3989;48.810;9.208;2022-09-09T08:41:07;0.70;;;0.70;;
7887;SDS011;3989;48.810;9.208;2022-09-09T08:43:46;1.45;;;0.70;;
7887;SDS011;3989;48.810;9.208;2022-09-09T08:46:19;0.63;;;0.63;;
7887;SDS011;3989;48.810;9.208;2022-09-09T08:48:52;1.42;;;0.60;;
7887;SDS011;3989;48.810;9.208;2022-09-09T08:51:24;1.95;;;0.80;;
7887;SDS011;3989;48.810;9.208;2022-09-09T08:53:53;1.73;;;0.77;;
7887;SDS011;3989;48.810;9.208;2022-09-09T08:56:24;2.25;;;0.93;;
7887;SDS011;3989;48.810;9.208;2022-09-09T08:58:53;0.82;;;0.82;;
7887;SDS011;3989;48.810;9.208;2022-09-09T09:04:38;1.55;;;0.98;;
7887;SDS011;3989;48.810;9.208;2022-09-09T09:07:18;1.10;;;0.73;;
7887;SDS011;3989;48.810;9.208;2022-09-09T09:09:55;1.15;;;0.85;;
7887;SDS011;3989;48.810;9.208;2022-09-09T09:12:26;2.40;;;0.75;;
7887;SDS011;3989;48.810;9.208;2022-09-09T09:14:55;4.63;;;0.90;;
7887;SDS011;3989;48.810;9.208;2022-09-09T09:17:24;2.00;;;0.80;;
7887;SDS011;3989;48.810;9.208;2022-09-09T09:19:53;1.45;;;0.63;;
7887;SDS011;3989;48.810;9.208;2022-09-09T09:22:20;0.80;;;0.65;;
7887;SDS011;3989;48.810;9.208;2022-09-09T09:24:51;0.57;;;0.57;;
7887;SDS011;3989;48.810;9.208;2022-09-09T09:27:21;1.20;;;0.75;;
7887;SDS011;3989;48.810;9.208;2022-09-09T09:29:56;1.00;;;0.80;;
7887;SDS011;3989;48.810;9.208;2022-09-09T09:32:27;1.17;;;0.88;;
7887;SDS011;3989;48.810;9.208;2022-09-09T09:34:57;1.15;;;0.60;;
7887;SDS011;3989;48.810;9.208;2022-09-09T09:37:26;2.80;;;0.85;;
7887;SDS011;3989;48.810;9.208;2022-09-09T09:39:56;1.15;;;0.75;;
7887;SDS011;3989;48.810;9.208;2022-09-09T09:42:34;2.70;;;0.70;;
7887;SDS011;3989;48.810;9.208;2022-09-09T09:45:06;1.25;;;0.60;;
7887;SDS011;3989;48.810;9.208;2022-09-09T09:47:36;0.60;;;0.60;;
7887;SDS011;3989;48.810;9.208;2022-09-09T09:50:15;0.88;;;0.70;;
7887;SDS011;3989;48.810;9.208;2022-09-09T09:52:51;0.57;;;0.50;;
7887;SDS011;3989;48.810;9.208;2022-09-09T09:55:20;0.80;;;0.60;;
7887;SDS011;3989;48.810;9.208;2022-09-09T09:57:47;1.92;;;0.57;;
7887;SDS011;3989;48.810;9.208;2022-09-09T10:00:15;0.73;;;0.50;;
7887;SDS011;3989;48.810;9.208;2022-09-09T10:02:44;0.90;;;0.40;;
7887;SDS011;3989;48.810;9.208;2022-09-09T10:05:13;0.65;;;0.40;;
7887;SDS011;3989;48.810;9.208;2022-09-09T10:07:41;1.08;;;0.50;;
7887;SDS011;3989;48.810;9.208;2022-09-09T10:10:12;1.20;;;0.52;;
7887;SDS011;3989;48.810;9.208;2022-09-09T10:12:48;2.40;;;0.60;;
7887;SDS011;3989;48.810;9.208;2022-09-09T10:15:30;1.90;;;0.70;;
7887;SDS011;3989;48.810;9.208;2022-09-09T10:18:05;1.45;;;0.60;;
7887;SDS011;3989;48.810;9.208;2022-09-09T10:20:42;0.95;;;0.50;;
7887;SDS011;3989;48.810;9.208;2022-09-09T10:23:25;1.38;;;0.60;;
7887;SDS011;3989;48.810;9.208;2022-09-09T10:26:09;0.93;;;0.85;;
7887;SDS011;3989;48.810;9.208;2022-09-09T10:28:55;2.00;;;0.70;;
7887;SDS011;3989;48.810;9.208;2022-09-09T10:31:39;2.75;;;1.00;;
7887;SDS011;3989;48.810;9.208;2022-09-09T10:34:17;1.63;;;0.70;;
7887;SDS011;3989;48.810;9.208;2022-09-09T10:37:02;1.10;;;0.80;;
7887;SDS011;3989;48.810;9.208;2022-09-09T10:39:34;3.50;;;0.88;;
7887;SDS011;3989;48.810;9.208;2022-09-09T10:42:06;0.70;;;0.70;;
7887;SDS011;3989;48.810;9.208;2022-09-09T10:47:32;1.45;;;0.80;;
7887;SDS011;3989;48.810;9.208;2022-09-09T10:50:21;1.10;;;0.80;;
7887;SDS011;3989;48.810;9.208;2022-09-09T10:53:02;1.25;;;0.98;;
7887;SDS011;3989;48.810;9.208;2022-09-09T10:55:38;1.55;;;1.27;;
7887;SDS011;3989;48.810;9.208;2022-09-09T10:58:10;0.82;;;0.82;;
7887;SDS011;3989;48.810;9.208;2022-09-09T11:00:41;0.73;;;0.63;;
7887;SDS011;3989;48.810;9.208;2022-09-09T11:03:13;3.17;;;1.08;;
7887;SDS011;3989;48.810;9.208;2022-09-09T11:05:47;1.30;;;0.80;;
7887;SDS011;3989;48.810;9.208;2022-09-09T11:08:18;0.80;;;0.80;;
7887;SDS011;3989;48.810;9.208;2022-09-09T11:10:48;1.08;;;0.80;;
7887;SDS011;3989;48.810;9.208;2022-09-09T11:13:22;1.15;;;0.80;;
7887;SDS011;3989;48.810;9.208;2022-09-09T11:15:58;1.15;;;0.60;;
7887;SDS011;3989;48.810;9.208;2022-09-09T11:18:31;1.02;;;0.82;;
7887;SDS011;3989;48.810;9.208;2022-09-09T11:21:12;0.63;;;0.63;;
7887;SDS011;3989;48.810;9.208;2022-09-09T11:23:47;0.98;;;0.75;;
7887;SDS011;3989;48.810;9.208;2022-09-09T11:26:27;0.88;;;0.70;;
7887;SDS011;3989;48.810;9.208;2022-09-09T11:31:52;1.77;;;0.70;;
7887;SDS011;3989;48.810;9.208;2022-09-09T11:34:35;0.40;;;0.40;;
7887;SDS011;3989;48.810;9.208;2022-09-09T11:37:17;1.17;;;0.55;;
7887;SDS011;3989;48.810;9.208;2022-09-09T11:40:14;1.75;;;0.52;;
7887;SDS011;3989;48.810;9.208;2022-09-09T11:42:45;1.75;;;0.63;;
7887;SDS011;3989;48.810;9.208;2022-09-09T11:45:22;1.08;;;0.70;;
7887;SDS011;3989;48.810;9.208;2022-09-09T11:47:53;0.50;;;0.50;;
7887;SDS011;3989;48.810;9.208;2022-09-09T11:50:33;1.08;;;0.55;;
7887;SDS011;3989;48.810;9.208;2022-09-09T11:53:05;1.85;;;0.65;;
7887;SDS011;3989;48.810;9.208;2022-09-09T11:55:46;1.33;;;0.47;;
7887;SDS011;3989;48.810;9.208;2022-09-09T11:58:15;0.47;;;0.47;;
7887;SDS011;3989;48.810;9.208;2022-09-09T12:00:43;0.50;;;0.50;;
7887;SDS011;3989;48.810;9.208;2022-09-09T12:06:09;0.28;;;0.28;;
7887;SDS011;3989;48.810;9.208;2022-09-09T12:08:42;0.40;;;0.40;;
7887;SDS011;3989;48.810;9.208;2022-09-09T12:11:11;0.57;;;0.45;;
7887;SDS011;3989;48.810;9.208;2022-09-09T12:13:37;1.00;;;0.43;;
7887;SDS011;3989;48.810;9.208;2022-09-09T12:16:05;0.63;;;0.45;;
7887;SDS011;3989;48.810;9.208;2022-09-09T12:18:32;2.33;;;0.63;;
7887;SDS011;3989;48.810;9.208;2022-09-09T12:21:03;0.35;;;0.35;;
7887;SDS011;3989;48.810;9.208;2022-09-09T12:23:42;0.30;;;0.30;;
7887;SDS011;3989;48.810;9.208;2022-09-09T12:26:26;0.30;;;0.30;;
7887;SDS011;3989;48.810;9.208;2022-09-09T12:29:01;0.40;;;0.40;;
7887;SDS011;3989;48.810;9.208;2022-09-09T12:31:39;0.50;;;0.50;;
7887;SDS011;3989;48.810;9.208;2022-09-09T12:34:11;0.40;;;0.40;;
7887;SDS011;3989;48.810;9.208;2022-09-09T12:36:42;0.47;;;0.30;;
7887;SDS011;3989;48.810;9.208;2022-09-09T12:39:17;2.28;;;0.40;;
7887;SDS011;3989;48.810;9.208;2022-09-09T12:41:51;0.40;;;0.40;;
7887;SDS011;3989;48.810;9.208;2022-09-09T12:44:22;0.30;;;0.30;;
7887;SDS011;3989;48.810;9.208;2022-09-09T12:46:50;0.50;;;0.50;;
7887;SDS011;3989;48.810;9.208;2022-09-09T12:49:29;1.20;;;0.60;;
7887;SDS011;3989;48.810;9.208;2022-09-09T12:51:59;1.23;;;0.40;;
7887;SDS011;3989;48.810;9.208;2022-09-09T12:54:31;0.30;;;0.30;;
7887;SDS011;3989;48.810;9.208;2022-09-09T12:56:58;1.35;;;0.70;;
7887;SDS011;3989;48.810;9.208;2022-09-09T12:59:26;0.50;;;0.50;;
7887;SDS011;3989;48.810;9.208;2022-09-09T13:02:02;1.17;;;0.43;;
7887;SDS011;3989;48.810;9.208;2022-09-09T13:04:28;0.30;;;0.30;;
7887;SDS011;3989;48.810;9.208;2022-09-09T13:07:05;0.47;;;0.47;;
7887;SDS011;3989;48.810;9.208;2022-09-09T13:09:37;0.63;;;0.30;;
7887;SDS011;3989;48.810;9.208;2022-09-09T13:12:04;0.85;;;0.50;;
7887;SDS011;3989;48.810;9.208;2022-09-09T13:14:38;1.35;;;0.30;;
7887;SDS011;3989;48.810;9.208;2022-09-09T13:17:05;0.77;;;0.40;;
7887;SDS011;3989;48.810;9.208;2022-09-09T13:19:43;1.23;;;0.80;;
7887;SDS011;3989;48.810;9.208;2022-09-09T13:22:12;0.55;;;0.40;;
7887;SDS011;3989;48.810;9.208;2022-09-09T13:24:41;0.50;;;0.50;;
7887;SDS011;3989;48.810;9.208;2022-09-09T13:27:21;0.50;;;0.50;;
7887;SDS011;3989;48.810;9.208;2022-09-09T13:29:52;0.50;;;0.50;;
7887;SDS011;3989;48.810;9.208;2022-09-09T13:32:22;0.85;;;0.50;;
7887;SDS011;3989;48.810;9.208;2022-09-09T13:34:50;1.75;;;0.30;;
7887;SDS011;3989;48.810;9.208;2022-09-09T13:37:20;0.85;;;0.63;;
7887;SDS011;3989;48.810;9.208;2022-09-09T13:39:52;0.75;;;0.50;;
7887;SDS011;3989;48.810;9.208;2022-09-09T13:42:22;1.60;;;0.50;;
7887;SDS011;3989;48.810;9.208;2022-09-09T13:44:51;1.42;;;0.73;;
7887;SDS011;3989;48.810;9.208;2022-09-09T13:47:19;0.57;;;0.47;;
7887;SDS011;3989;48.810;9.208;2022-09-09T13:49:46;0.45;;;0.32;;
7887;SDS011;3989;48.810;9.208;2022-09-09T13:52:13;1.02;;;0.70;;
7887;SDS011;3989;48.810;9.208;2022-09-09T13:54:42;0.65;;;0.45;;
7887;SDS011;3989;48.810;9.208;2022-09-09T13:57:15;0.35;;;0.35;;
7887;SDS011;3989;48.810;9.208;2022-09-09T13:59:43;0.35;;;0.30;;
7887;SDS011;3989;48.810;9.208;2022-09-09T14:02:10;0.65;;;0.40;;
7887;SDS011;3989;48.810;9.208;2022-09-09T14:04:37;0.47;;;0.40;;
7887;SDS011;3989;48.810;9.208;2022-09-09T14:07:07;0.50;;;0.50;;
7887;SDS011;3989;48.810;9.208;2022-09-09T14:09:37;0.52;;;0.40;;
7887;SDS011;3989;48.810;9.208;2022-09-09T14:12:03;0.52;;;0.52;;
7887;SDS011;3989;48.810;9.208;2022-09-09T14:14:32;0.30;;;0.30;;
7887;SDS011;3989;48.810;9.208;2022-09-09T14:16:58;0.30;;;0.30;;
7887;SDS011;3989;48.810;9.208;2022-09-09T14:19:25;0.60;;;0.43;;
7887;SDS011;3989;48.810;9.208;2022-09-09T14:21:52;0.52;;;0.40;;
7887;SDS011;3989;48.810;9.208;2022-09-09T14:24:19;0.50;;;0.50;;
7887;SDS011;3989;48.810;9.208;2022-09-09T14:26:46;0.52;;;0.35;;
7887;SDS011;3989;48.810;9.208;2022-09-09T14:29:12;0.75;;;0.40;;
7887;SDS011;3989;48.810;9.208;2022-09-09T14:31:41;0.75;;;0.45;;
7887;SDS011;3989;48.810;9.208;2022-09-09T14:34:08;1.00;;;0.50;;
7887;SDS011;3989;48.810;9.208;2022-09-09T14:36:36;0.63;;;0.50;;
7887;SDS011;3989;48.810;9.208;2022-09-09T14:39:02;0.32;;;0.32;;
7887;SDS011;3989;48.810;9.208;2022-09-09T14:41:29;0.57;;;0.40;;
7887;SDS011;3989;48.810;9.208;2022-09-09T14:43:56;0.77;;;0.38;;
7887;SDS011;3989;48.810;9.208;2022-09-09T14:46:24;0.80;;;0.40;;
7887;SDS011;3989;48.810;9.208;2022-09-09T14:48:53;0.35;;;0.35;;
7887;SDS011;3989;48.810;9.208;2022-09-09T14:51:20;0.57;;;0.30;;
7887;SDS011;3989;48.810;9.208;2022-09-09T14:53:48;0.40;;;0.40;;
7887;SDS011;3989;48.810;9.208;2022-09-09T14:56:18;0.57;;;0.43;;
7887;SDS011;3989;48.810;9.208;2022-09-09T14:58:48;0.40;;;0.40;;
7887;SDS011;3989;48.810;9.208;2022-09-09T15:01:15;1.13;;;0.60;;
7887;SDS011;3989;48.810;9.208;2022-09-09T15:03:48;0.77;;;0.50;;
7887;SDS011;3989;48.810;9.208;2022-09-09T15:06:17;1.13;;;0.40;;
7887;SDS011;3989;48.810;9.208;2022-09-09T15:08:45;3.05;;;0.85;;
7887;SDS011;3989;48.810;9.208;2022-09-09T15:11:13;2.05;;;0.50;;
7887;SDS011;3989;48.810;9.208;2022-09-09T15:13:41;0.65;;;0.30;;
7887;SDS011;3989;48.810;9.208;2022-09-09T15:16:09;2.08;;;0.50;;
7887;SDS011;3989;48.810;9.208;2022-09-09T15:18:38;1.40;;;0.88;;
7887;SDS011;3989;48.810;9.208;2022-09-09T15:21:07;2.22;;;0.90;;
7887;SDS011;3989;48.810;9.208;2022-09-09T15:23:36;1.10;;;0.55;;
7887;SDS011;3989;48.810;9.208;2022-09-09T15:26:03;2.40;;;0.70;;
7887;SDS011;3989;48.810;9.208;2022-09-09T15:28:31;0.40;;;0.40;;
7887;SDS011;3989;48.810;9.208;2022-09-09T15:31:02;1.75;;;0.70;;
7887;SDS011;3989;48.810;9.208;2022-09-09T15:33:32;0.88;;;0.68;;
7887;SDS011;3989;48.810;9.208;2022-09-09T15:35:59;1.85;;;0.40;;
7887;SDS011;3989;48.810;9.208;2022-09-09T15:38:25;0.40;;;0.40;;
7887;SDS011;3989;48.810;9.208;2022-09-09T15:40:56;2.95;;;0.40;;
7887;SDS011;3989;48.810;9.208;2022-09-09T15:43:23;0.82;;;0.40;;
7887;SDS011;3989;48.810;9.208;2022-09-09T15:45:51;0.35;;;0.35;;
7887;SDS011;3989;48.810;9.208;2022-09-09T15:48:24;0.45;;;0.45;;
7887;SDS011;3989;48.810;9.208;2022-09-09T15:51:00;1.23;;;0.50;;